sensor_id;sensor_type;location;lat;lon;timestamp;pressure;altitude;pressure_sealevel;temperature;humidity
76694;BME280;65625;52.136;5.424;2023-02-24T00:01:53;101762.66;;;1.18;97.55
76694;BME280;65625;52.136;5.424;2023-02-24T00:04:36;101759.09;;;1.18;97.03
76694;BME280;65625;52.136;5.424;2023-02-24T00:07:10;101763.44;;;1.22;97.85
76694;BME280;65625;52.136;5.424;2023-02-24T00:09:38;101762.53;;;1.23;98.08
76694;BME280;65625;52.136;5.424;2023-02-24T00:12:07;101752.75;;;1.25;97.70
76694;BME280;65625;52.136;5.424;2023-02-24T00:14:39;101743.88;;;1.24;97.47
76694;BME280;65625;52.136;5.424;2023-02-24T00:17:06;101747.41;;;1.26;98.30
76694;BME280;65625;52.136;5.424;2023-02-24T00:19:35;101749.13;;;1.27;97.48
76694;BME280;65625;52.136;5.424;2023-02-24T00:22:03;101747.34;;;1.28;97.24
76694;BME280;65625;52.136;5.424;2023-02-24T00:24:31;101741.09;;;1.30;97.19
76694;BME280;65625;52.136;5.424;2023-02-24T00:26:59;101729.50;;;1.33;97.46
76694;BME280;65625;52.136;5.424;2023-02-24T00:29:28;101730.44;;;1.30;97.31
76694;BME280;65625;52.136;5.424;2023-02-24T00:31:56;101722.75;;;1.20;97.23
76694;BME280;65625;52.136;5.424;2023-02-24T00:34:31;101729.22;;;1.08;97.21
76694;BME280;65625;52.136;5.424;2023-02-24T00:36:59;101723.16;;;1.00;97.02
76694;BME280;65625;52.136;5.424;2023-02-24T00:39:26;101723.28;;;0.96;97.23
76694;BME280;65625;52.136;5.424;2023-02-24T00:42:04;101726.94;;;0.90;97.76
76694;BME280;65625;52.136;5.424;2023-02-24T00:44:33;101722.69;;;0.83;97.58
76694;BME280;65625;52.136;5.424;2023-02-24T00:47:01;101723.63;;;0.79;97.90
76694;BME280;65625;52.136;5.424;2023-02-24T00:49:32;101711.34;;;0.74;97.21
76694;BME280;65625;52.136;5.424;2023-02-24T00:51:59;101712.34;;;0.70;97.43
76694;BME280;65625;52.136;5.424;2023-02-24T00:54:25;101701.84;;;0.64;97.77
76694;BME280;65625;52.136;5.424;2023-02-24T00:56:54;101695.69;;;0.60;97.63
76694;BME280;65625;52.136;5.424;2023-02-24T00:59:22;101699.28;;;0.59;97.79
76694;BME280;65625;52.136;5.424;2023-02-24T01:01:49;101696.69;;;0.56;97.65
76694;BME280;65625;52.136;5.424;2023-02-24T01:04:17;101694.00;;;0.58;97.54
76694;BME280;65625;52.136;5.424;2023-02-24T01:06:47;101691.34;;;0.58;97.56
76694;BME280;65625;52.136;5.424;2023-02-24T01:09:19;101693.13;;;0.57;97.45
76694;BME280;65625;52.136;5.424;2023-02-24T01:11:47;101678.28;;;0.47;97.71
76694;BME280;65625;52.136;5.424;2023-02-24T01:14:34;101680.09;;;0.45;97.86
76694;BME280;65625;52.136;5.424;2023-02-24T01:17:02;101662.41;;;0.44;98.00
76694;BME280;65625;52.136;5.424;2023-02-24T01:19:31;101665.06;;;0.44;98.03
76694;BME280;65625;52.136;5.424;2023-02-24T01:22:06;101662.50;;;0.41;98.05
76694;BME280;65625;52.136;5.424;2023-02-24T01:24:35;101656.38;;;0.38;97.86
76694;BME280;65625;52.136;5.424;2023-02-24T01:27:05;101662.59;;;0.35;98.33
76694;BME280;65625;52.136;5.424;2023-02-24T01:29:34;101656.50;;;0.32;98.20
76694;BME280;65625;52.136;5.424;2023-02-24T01:32:08;101645.06;;;0.28;97.85
76694;BME280;65625;52.136;5.424;2023-02-24T01:34:39;101646.88;;;0.26;97.66
76694;BME280;65625;52.136;5.424;2023-02-24T01:37:08;101633.75;;;0.19;98.22
76694;BME280;65625;52.136;5.424;2023-02-24T01:39:35;101633.00;;;0.12;97.89
76694;BME280;65625;52.136;5.424;2023-02-24T01:42:03;101620.72;;;0.08;98.31
76694;BME280;65625;52.136;5.424;2023-02-24T01:46:58;101616.38;;;0.04;98.15
76694;BME280;65625;52.136;5.424;2023-02-24T01:49:38;101619.06;;;0.03;97.65
76694;BME280;65625;52.136;5.424;2023-02-24T01:52:16;101600.63;;;-0.04;97.73
76694;BME280;65625;52.136;5.424;2023-02-24T01:57:32;101596.22;;;-0.06;97.57
76694;BME280;65625;52.136;5.424;2023-02-24T02:00:03;101597.22;;;-0.10;98.05
76694;BME280;65625;52.136;5.424;2023-02-24T02:02:42;101591.94;;;-0.13;98.09
76694;BME280;65625;52.136;5.424;2023-02-24T02:05:11;101586.69;;;-0.16;98.05
76694;BME280;65625;52.136;5.424;2023-02-24T02:07:40;101585.78;;;-0.14;97.89
76694;BME280;65625;52.136;5.424;2023-02-24T02:10:08;101591.00;;;-0.09;98.41
76694;BME280;65625;52.136;5.424;2023-02-24T02:12:37;101587.38;;;-0.05;97.89
76694;BME280;65625;52.136;5.424;2023-02-24T02:15:10;101585.59;;;-0.05;98.43
76694;BME280;65625;52.136;5.424;2023-02-24T02:17:42;101579.34;;;-0.02;98.03
76694;BME280;65625;52.136;5.424;2023-02-24T02:20:26;101586.25;;;0.05;98.85
76694;BME280;65625;52.136;5.424;2023-02-24T02:26:05;101568.59;;;0.04;98.53
76694;BME280;65625;52.136;5.424;2023-02-24T02:34:53;101547.47;;;-0.01;98.60
76694;BME280;65625;52.136;5.424;2023-02-24T02:37:33;101536.97;;;-0.05;98.45
76694;BME280;65625;52.136;5.424;2023-02-24T02:40:09;101535.34;;;-0.12;97.85
76694;BME280;65625;52.136;5.424;2023-02-24T02:43:00;101530.13;;;-0.15;98.62
76694;BME280;65625;52.136;5.424;2023-02-24T02:45:39;101530.22;;;-0.21;98.11
76694;BME280;65625;52.136;5.424;2023-02-24T02:48:17;101531.09;;;-0.21;98.49
76694;BME280;65625;52.136;5.424;2023-02-24T02:51:07;101530.22;;;-0.21;98.14
76694;BME280;65625;52.136;5.424;2023-02-24T02:53:41;101526.78;;;-0.26;98.42
76694;BME280;65625;52.136;5.424;2023-02-24T02:56:16;101522.41;;;-0.27;98.12
76694;BME280;65625;52.136;5.424;2023-02-24T02:58:48;101530.38;;;-0.29;98.56
76694;BME280;65625;52.136;5.424;2023-02-24T03:01:20;101519.81;;;-0.30;98.04
76694;BME280;65625;52.136;5.424;2023-02-24T03:03:52;101512.69;;;-0.28;98.67
76694;BME280;65625;52.136;5.424;2023-02-24T03:06:25;101511.78;;;-0.27;98.35
76694;BME280;65625;52.136;5.424;2023-02-24T03:08:57;101506.41;;;-0.24;98.78
76694;BME280;65625;52.136;5.424;2023-02-24T03:11:25;101505.53;;;-0.25;98.47
76694;BME280;65625;52.136;5.424;2023-02-24T03:13:55;101497.53;;;-0.23;98.95
76694;BME280;65625;52.136;5.424;2023-02-24T03:16:25;101494.84;;;-0.22;98.52
76694;BME280;65625;52.136;5.424;2023-02-24T03:18:57;101494.00;;;-0.22;98.44
76694;BME280;65625;52.136;5.424;2023-02-24T03:21:32;101490.44;;;-0.21;98.50
76694;BME280;65625;52.136;5.424;2023-02-24T03:24:01;101483.31;;;-0.19;98.72
76694;BME280;65625;52.136;5.424;2023-02-24T03:26:55;101476.19;;;-0.16;98.10
76694;BME280;65625;52.136;5.424;2023-02-24T03:29:26;101470.84;;;-0.14;98.45
76694;BME280;65625;52.136;5.424;2023-02-24T03:32:12;101469.09;;;-0.15;98.16
76694;BME280;65625;52.136;5.424;2023-02-24T03:35:04;101461.13;;;-0.14;98.10
76694;BME280;65625;52.136;5.424;2023-02-24T03:37:36;101463.72;;;-0.12;98.52
76694;BME280;65625;52.136;5.424;2023-02-24T03:40:07;101469.81;;;-0.07;98.09
76694;BME280;65625;52.136;5.424;2023-02-24T03:42:42;101459.09;;;-0.03;98.29
76694;BME280;65625;52.136;5.424;2023-02-24T03:45:11;101458.94;;;0.03;98.22
76694;BME280;65625;52.136;5.424;2023-02-24T03:47:39;101463.34;;;0.05;97.96
76694;BME280;65625;52.136;5.424;2023-02-24T03:50:13;101457.97;;;0.08;98.04
76694;BME280;65625;52.136;5.424;2023-02-24T04:01:21;101447.75;;;0.28;98.47
76694;BME280;65625;52.136;5.424;2023-02-24T04:04:11;101437.94;;;0.31;98.12
76694;BME280;65625;52.136;5.424;2023-02-24T04:06:57;101438.03;;;0.28;97.87
76694;BME280;65625;52.136;5.424;2023-02-24T04:09:49;101431.84;;;0.28;97.89
76694;BME280;65625;52.136;5.424;2023-02-24T04:12:36;101427.34;;;0.31;97.49
76694;BME280;65625;52.136;5.424;2023-02-24T04:15:09;101425.41;;;0.38;97.67
76694;BME280;65625;52.136;5.424;2023-02-24T04:17:43;101421.78;;;0.40;97.56
76694;BME280;65625;52.136;5.424;2023-02-24T04:20:14;101423.41;;;0.46;97.99
76694;BME280;65625;52.136;5.424;2023-02-24T04:22:52;101419.00;;;0.46;97.85
76694;BME280;65625;52.136;5.424;2023-02-24T04:25:23;101410.94;;;0.49;98.10
76694;BME280;65625;52.136;5.424;2023-02-24T04:27:54;101410.03;;;0.50;97.39
76694;BME280;65625;52.136;5.424;2023-02-24T04:30:23;101407.22;;;0.56;97.90
76694;BME280;65625;52.136;5.424;2023-02-24T04:32:52;101396.59;;;0.56;97.37
76694;BME280;65625;52.136;5.424;2023-02-24T04:35:19;101393.88;;;0.59;97.65
76694;BME280;65625;52.136;5.424;2023-02-24T04:37:49;101371.69;;;0.62;98.23
76694;BME280;65625;52.136;5.424;2023-02-24T04:40:17;101368.09;;;0.63;97.47
76694;BME280;65625;52.136;5.424;2023-02-24T04:42:51;101366.25;;;0.66;97.63
76694;BME280;65625;52.136;5.424;2023-02-24T04:45:19;101361.78;;;0.68;97.73
76694;BME280;65625;52.136;5.424;2023-02-24T04:47:52;101360.78;;;0.71;97.72
76694;BME280;65625;52.136;5.424;2023-02-24T04:50:23;101361.63;;;0.73;98.17
76694;BME280;65625;52.136;5.424;2023-02-24T04:52:52;101359.91;;;0.70;97.57
76694;BME280;65625;52.136;5.424;2023-02-24T04:55:22;101360.84;;;0.69;98.26
76694;BME280;65625;52.136;5.424;2023-02-24T04:57:52;101356.47;;;0.67;97.65
76694;BME280;65625;52.136;5.424;2023-02-24T05:00:19;101362.75;;;0.64;97.64
76694;BME280;65625;52.136;5.424;2023-02-24T05:02:48;101358.31;;;0.65;97.39
76694;BME280;65625;52.136;5.424;2023-02-24T05:05:17;101351.28;;;0.62;97.91
76694;BME280;65625;52.136;5.424;2023-02-24T05:07:45;101342.38;;;0.65;98.03
76694;BME280;65625;52.136;5.424;2023-02-24T05:10:14;101342.34;;;0.66;97.98
76694;BME280;65625;52.136;5.424;2023-02-24T05:12:41;101334.38;;;0.66;97.54
76694;BME280;65625;52.136;5.424;2023-02-24T05:15:08;101332.50;;;0.70;97.80
76694;BME280;65625;52.136;5.424;2023-02-24T05:17:35;101331.59;;;0.71;97.79
76694;BME280;65625;52.136;5.424;2023-02-24T05:20:02;101327.09;;;0.73;97.82
76694;BME280;65625;52.136;5.424;2023-02-24T05:22:48;101309.41;;;0.73;97.51
76694;BME280;65625;52.136;5.424;2023-02-24T05:25:19;101298.69;;;0.76;96.99
76694;BME280;65625;52.136;5.424;2023-02-24T05:27:46;101300.50;;;0.74;97.43
76694;BME280;65625;52.136;5.424;2023-02-24T05:30:13;101291.59;;;0.75;96.98
76694;BME280;65625;52.136;5.424;2023-02-24T05:32:40;101295.13;;;0.76;97.52
76694;BME280;65625;52.136;5.424;2023-02-24T05:35:06;101292.44;;;0.77;96.83
76694;BME280;65625;52.136;5.424;2023-02-24T05:37:37;101289.78;;;0.77;97.53
76694;BME280;65625;52.136;5.424;2023-02-24T05:40:04;101282.66;;;0.79;97.05
76694;BME280;65625;52.136;5.424;2023-02-24T05:42:33;101272.91;;;0.80;97.44
76694;BME280;65625;52.136;5.424;2023-02-24T05:45:01;101271.09;;;0.80;97.09
76694;BME280;65625;52.136;5.424;2023-02-24T05:47:27;101253.41;;;0.79;96.52
76694;BME280;65625;52.136;5.424;2023-02-24T05:49:54;101254.31;;;0.80;96.51
76694;BME280;65625;52.136;5.424;2023-02-24T05:52:24;101247.13;;;0.82;96.98
76694;BME280;65625;52.136;5.424;2023-02-24T05:54:50;101241.72;;;0.86;96.33
76694;BME280;65625;52.136;5.424;2023-02-24T05:57:18;101240.78;;;0.87;96.22
76694;BME280;65625;52.136;5.424;2023-02-24T05:59:50;101240.69;;;0.90;96.62
76694;BME280;65625;52.136;5.424;2023-02-24T06:02:18;101227.34;;;0.92;96.55
76694;BME280;65625;52.136;5.424;2023-02-24T06:04:52;101221.97;;;0.95;96.47
76694;BME280;65625;52.136;5.424;2023-02-24T06:07:24;101215.72;;;0.96;96.64
76694;BME280;65625;52.136;5.424;2023-02-24T06:09:54;101211.19;;;0.99;96.13
76694;BME280;65625;52.136;5.424;2023-02-24T06:12:29;101214.63;;;1.03;96.17
76694;BME280;65625;52.136;5.424;2023-02-24T06:14:56;101207.44;;;1.06;96.00
76694;BME280;65625;52.136;5.424;2023-02-24T06:17:27;101198.47;;;1.09;96.58
76694;BME280;65625;52.136;5.424;2023-02-24T06:19:53;101207.28;;;1.11;95.74
76694;BME280;65625;52.136;5.424;2023-02-24T06:22:22;101203.69;;;1.12;96.36
76694;BME280;65625;52.136;5.424;2023-02-24T06:24:49;101202.75;;;1.14;95.58
76694;BME280;65625;52.136;5.424;2023-02-24T06:27:17;101206.19;;;1.18;96.42
76694;BME280;65625;52.136;5.424;2023-02-24T06:29:49;101203.38;;;1.22;95.99
76694;BME280;65625;52.136;5.424;2023-02-24T06:32:17;101197.97;;;1.25;95.97
76694;BME280;65625;52.136;5.424;2023-02-24T06:34:44;101192.47;;;1.32;95.96
76694;BME280;65625;52.136;5.424;2023-02-24T06:37:12;101196.84;;;1.33;95.12
76694;BME280;65625;52.136;5.424;2023-02-24T06:39:39;101186.09;;;1.36;95.97
76694;BME280;65625;52.136;5.424;2023-02-24T06:42:06;101185.97;;;1.40;95.07
76694;BME280;65625;52.136;5.424;2023-02-24T06:44:36;101179.69;;;1.43;95.44
76694;BME280;65625;52.136;5.424;2023-02-24T06:47:05;101181.34;;;1.47;95.07
76694;BME280;65625;52.136;5.424;2023-02-24T06:49:32;101173.19;;;1.51;94.94
76694;BME280;65625;52.136;5.424;2023-02-24T06:51:59;101170.47;;;1.53;95.08
76694;BME280;65625;52.136;5.424;2023-02-24T06:54:26;101158.00;;;1.55;94.70
76694;BME280;65625;52.136;5.424;2023-02-24T06:56:58;101160.50;;;1.59;94.67
76694;BME280;65625;52.136;5.424;2023-02-24T06:59:25;101164.81;;;1.63;94.93
76694;BME280;65625;52.136;5.424;2023-02-24T07:01:55;101161.16;;;1.66;94.76
76694;BME280;65625;52.136;5.424;2023-02-24T07:04:22;101166.34;;;1.70;94.45
76694;BME280;65625;52.136;5.424;2023-02-24T07:06:56;101153.78;;;1.74;93.98
76694;BME280;65625;52.136;5.424;2023-02-24T07:09:25;101145.78;;;1.75;94.28
76694;BME280;65625;52.136;5.424;2023-02-24T07:11:53;101142.94;;;1.80;94.72
76694;BME280;65625;52.136;5.424;2023-02-24T07:14:26;101134.75;;;1.86;94.24
76694;BME280;65625;52.136;5.424;2023-02-24T07:16:52;101131.00;;;1.91;94.12
76694;BME280;65625;52.136;5.424;2023-02-24T07:19:23;101134.38;;;1.96;93.81
76694;BME280;65625;52.136;5.424;2023-02-24T07:21:54;101136.84;;;2.01;94.44
76694;BME280;65625;52.136;5.424;2023-02-24T07:24:27;101128.69;;;2.05;93.95
76694;BME280;65625;52.136;5.424;2023-02-24T07:27:07;101131.09;;;2.13;93.63
76694;BME280;65625;52.136;5.424;2023-02-24T07:29:37;101130.03;;;2.18;93.14
76694;BME280;65625;52.136;5.424;2023-02-24T07:32:07;101124.47;;;2.24;93.68
76694;BME280;65625;52.136;5.424;2023-02-24T07:34:35;101118.06;;;2.30;93.21
76694;BME280;65625;52.136;5.424;2023-02-24T07:37:06;101108.94;;;2.35;92.93
76694;BME280;65625;52.136;5.424;2023-02-24T07:39:34;101111.41;;;2.41;93.34
76694;BME280;65625;52.136;5.424;2023-02-24T07:42:02;101108.47;;;2.47;92.73
76694;BME280;65625;52.136;5.424;2023-02-24T07:44:39;101098.59;;;2.51;92.59
76694;BME280;65625;52.136;5.424;2023-02-24T07:47:06;101099.34;;;2.54;93.11
76694;BME280;65625;52.136;5.424;2023-02-24T07:49:34;101097.44;;;2.58;93.41
76694;BME280;65625;52.136;5.424;2023-02-24T07:52:00;101097.31;;;2.61;93.23
76694;BME280;65625;52.136;5.424;2023-02-24T07:54:27;101094.50;;;2.64;93.34
76694;BME280;65625;52.136;5.424;2023-02-24T07:56:56;101086.41;;;2.67;93.20
76694;BME280;65625;52.136;5.424;2023-02-24T07:59:29;101087.09;;;2.72;93.63
76694;BME280;65625;52.136;5.424;2023-02-24T08:01:58;101091.38;;;2.76;93.55
76694;BME280;65625;52.136;5.424;2023-02-24T08:04:28;101094.84;;;2.78;92.89
76694;BME280;65625;52.136;5.424;2023-02-24T08:06:56;101085.84;;;2.81;93.10
76694;BME280;65625;52.136;5.424;2023-02-24T08:09:29;101093.69;;;2.85;93.26
76694;BME280;65625;52.136;5.424;2023-02-24T08:12:13;101096.22;;;2.88;93.98
76694;BME280;65625;52.136;5.424;2023-02-24T08:14:48;101088.22;;;2.88;94.03
76694;BME280;65625;52.136;5.424;2023-02-24T08:17:24;101085.38;;;2.93;93.53
76694;BME280;65625;52.136;5.424;2023-02-24T08:19:53;101070.13;;;2.96;93.68
76694;BME280;65625;52.136;5.424;2023-02-24T08:22:35;101072.53;;;3.02;93.74
76694;BME280;65625;52.136;5.424;2023-02-24T08:25:02;101062.44;;;3.10;93.69
76694;BME280;65625;52.136;5.424;2023-02-24T08:27:35;101063.97;;;3.16;93.69
76694;BME280;65625;52.136;5.424;2023-02-24T08:30:06;101046.03;;;3.19;93.90
76694;BME280;65625;52.136;5.424;2023-02-24T08:32:40;101051.84;;;3.29;93.97
76694;BME280;65625;52.136;5.424;2023-02-24T08:35:17;101051.69;;;3.33;94.14
76694;BME280;65625;52.136;5.424;2023-02-24T08:37:54;101038.88;;;3.41;94.23
76694;BME280;65625;52.136;5.424;2023-02-24T08:40:31;101031.63;;;3.45;94.67
76694;BME280;65625;52.136;5.424;2023-02-24T08:43:11;101035.75;;;3.52;94.43
76694;BME280;65625;52.136;5.424;2023-02-24T08:46:02;101033.81;;;3.55;94.40
76694;BME280;65625;52.136;5.424;2023-02-24T08:48:37;101037.34;;;3.56;94.36
76694;BME280;65625;52.136;5.424;2023-02-24T08:53:44;101033.03;;;3.53;94.63
76694;BME280;65625;52.136;5.424;2023-02-24T08:56:13;101025.94;;;3.52;94.65
76694;BME280;65625;52.136;5.424;2023-02-24T08:58:55;101022.41;;;3.52;94.51
76694;BME280;65625;52.136;5.424;2023-02-24T09:01:30;101016.06;;;3.54;94.53
76694;BME280;65625;52.136;5.424;2023-02-24T09:04:12;101020.34;;;3.58;94.64
76694;BME280;65625;52.136;5.424;2023-02-24T09:06:50;101003.13;;;3.65;94.93
76694;BME280;65625;52.136;5.424;2023-02-24T09:09:36;100995.66;;;3.73;94.61
76694;BME280;65625;52.136;5.424;2023-02-24T09:12:08;100996.81;;;3.86;94.37
76694;BME280;65625;52.136;5.424;2023-02-24T09:14:37;100997.19;;;3.98;94.21
76694;BME280;65625;52.136;5.424;2023-02-24T09:17:06;100988.69;;;4.08;94.57
76694;BME280;65625;52.136;5.424;2023-02-24T09:19:44;100977.63;;;4.16;93.88
76694;BME280;65625;52.136;5.424;2023-02-24T09:22:32;100971.63;;;4.29;94.32
76694;BME280;65625;52.136;5.424;2023-02-24T09:27:51;100960.34;;;4.60;93.50
76694;BME280;65625;52.136;5.424;2023-02-24T09:30:23;100958.63;;;4.59;93.21
76694;BME280;65625;52.136;5.424;2023-02-24T09:33:10;100948.44;;;4.67;93.42
76694;BME280;65625;52.136;5.424;2023-02-24T09:35:49;100942.91;;;4.70;93.00
76694;BME280;65625;52.136;5.424;2023-02-24T09:38:22;100947.88;;;4.77;93.92
76694;BME280;65625;52.136;5.424;2023-02-24T09:41:45;100940.47;;;4.82;93.47
76694;BME280;65625;52.136;5.424;2023-02-24T09:44:31;100935.47;;;4.93;94.10
76694;BME280;65625;52.136;5.424;2023-02-24T09:47:05;100937.44;;;4.90;94.26
76694;BME280;65625;52.136;5.424;2023-02-24T09:49:56;100934.13;;;4.85;93.89
76694;BME280;65625;52.136;5.424;2023-02-24T09:52:27;100922.97;;;4.77;95.02
76694;BME280;65625;52.136;5.424;2023-02-24T09:58:06;100922.00;;;4.78;95.68
76694;BME280;65625;52.136;5.424;2023-02-24T10:01:07;100919.25;;;4.79;95.27
76694;BME280;65625;52.136;5.424;2023-02-24T10:06:25;100910.41;;;4.79;96.02
76694;BME280;65625;52.136;5.424;2023-02-24T10:09:08;100909.44;;;4.80;95.85
76694;BME280;65625;52.136;5.424;2023-02-24T10:11:44;100908.41;;;4.82;96.18
76694;BME280;65625;52.136;5.424;2023-02-24T10:14:38;100907.63;;;4.80;96.52
76694;BME280;65625;52.136;5.424;2023-02-24T10:17:18;100913.09;;;4.77;97.20
76694;BME280;65625;52.136;5.424;2023-02-24T10:19:59;100903.28;;;4.78;96.83
76694;BME280;65625;52.136;5.424;2023-02-24T10:25:28;100905.09;;;4.77;97.79
76694;BME280;65625;52.136;5.424;2023-02-24T10:31:02;100883.56;;;4.80;97.83
76694;BME280;65625;52.136;5.424;2023-02-24T10:34:12;100881.44;;;4.87;97.62
76694;BME280;65625;52.136;5.424;2023-02-24T10:36:46;100883.88;;;4.91;97.45
76694;BME280;65625;52.136;5.424;2023-02-24T10:39:21;100883.72;;;4.94;97.32
76694;BME280;65625;52.136;5.424;2023-02-24T10:42:03;100868.63;;;4.93;98.43
76694;BME280;65625;52.136;5.424;2023-02-24T10:44:45;100878.06;;;5.00;98.08
76694;BME280;65625;52.136;5.424;2023-02-24T10:47:29;100869.00;;;5.03;98.00
76694;BME280;65625;52.136;5.424;2023-02-24T10:50:00;100875.06;;;5.06;98.34
76694;BME280;65625;52.136;5.424;2023-02-24T10:52:36;100873.00;;;5.11;97.94
76694;BME280;65625;52.136;5.424;2023-02-24T10:55:29;100864.72;;;5.16;98.29
76694;BME280;65625;52.136;5.424;2023-02-24T11:01:07;100842.94;;;5.24;97.92
76694;BME280;65625;52.136;5.424;2023-02-24T11:03:50;100848.91;;;5.29;98.60
76694;BME280;65625;52.136;5.424;2023-02-24T11:06:28;100834.75;;;5.27;98.73
76694;BME280;65625;52.136;5.424;2023-02-24T11:12:13;100834.38;;;5.17;98.50
76694;BME280;65625;52.136;5.424;2023-02-24T11:15:06;100834.22;;;5.20;98.14
76694;BME280;65625;52.136;5.424;2023-02-24T11:17:58;100836.88;;;5.20;98.13
76694;BME280;65625;52.136;5.424;2023-02-24T11:20:35;100830.34;;;5.26;99.05
76694;BME280;65625;52.136;5.424;2023-02-24T11:23:18;100815.56;;;5.34;98.43
76694;BME280;65625;52.136;5.424;2023-02-24T11:25:47;100818.56;;;5.45;99.25
76694;BME280;65625;52.136;5.424;2023-02-24T11:33:59;100810.22;;;5.67;98.37
76694;BME280;65625;52.136;5.424;2023-02-24T11:36:39;100817.78;;;5.74;98.50
76694;BME280;65625;52.136;5.424;2023-02-24T11:41:57;100792.25;;;5.84;99.15
76694;BME280;65625;52.136;5.424;2023-02-24T11:47:13;100794.00;;;5.85;98.08
76694;BME280;65625;52.136;5.424;2023-02-24T11:49:52;100787.69;;;5.86;98.36
76694;BME280;65625;52.136;5.424;2023-02-24T11:52:29;100788.47;;;5.88;98.61
76694;BME280;65625;52.136;5.424;2023-02-24T11:54:58;100775.94;;;5.89;98.21
76694;BME280;65625;52.136;5.424;2023-02-24T11:57:31;100773.00;;;5.93;99.02
76694;BME280;65625;52.136;5.424;2023-02-24T12:00:04;100773.69;;;5.97;98.67
76694;BME280;65625;52.136;5.424;2023-02-24T12:03:12;100766.59;;;5.96;98.94
76694;BME280;65625;52.136;5.424;2023-02-24T12:05:49;100759.34;;;5.98;98.78
76694;BME280;65625;52.136;5.424;2023-02-24T12:08:26;100757.91;;;6.22;98.24
76694;BME280;65625;52.136;5.424;2023-02-24T12:13:49;100752.91;;;7.03;98.12
76694;BME280;65625;52.136;5.424;2023-02-24T12:16:23;100756.81;;;7.54;97.57
76694;BME280;65625;52.136;5.424;2023-02-24T12:19:19;100751.47;;;7.81;97.05
76694;BME280;65625;52.136;5.424;2023-02-24T12:21:58;100752.34;;;8.08;96.60
76694;BME280;65625;52.136;5.424;2023-02-24T12:24:28;100743.34;;;8.21;95.83
76694;BME280;65625;52.136;5.424;2023-02-24T12:27:13;100734.03;;;8.00;95.88
76694;BME280;65625;52.136;5.424;2023-02-24T12:35:39;100713.56;;;8.51;96.10
76694;BME280;65625;52.136;5.424;2023-02-24T12:38:20;100712.22;;;9.44;95.37
76694;BME280;65625;52.136;5.424;2023-02-24T12:41:18;100714.16;;;9.42;93.35
76694;BME280;65625;52.136;5.424;2023-02-24T12:44:30;100708.69;;;9.31;92.55
76694;BME280;65625;52.136;5.424;2023-02-24T12:47:11;100690.97;;;9.40;91.53
76694;BME280;65625;52.136;5.424;2023-02-24T12:49:49;100702.81;;;9.50;91.11
76694;BME280;65625;52.136;5.424;2023-02-24T12:52:26;100698.69;;;9.57;90.27
76694;BME280;65625;52.136;5.424;2023-02-24T12:56:14;100703.16;;;9.45;90.32
76694;BME280;65625;52.136;5.424;2023-02-24T12:58:20;100694.25;;;9.32;90.92
76694;BME280;65625;52.136;5.424;2023-02-24T13:01:04;100683.28;;;9.23;91.09
76694;BME280;65625;52.136;5.424;2023-02-24T13:03:47;100683.28;;;9.23;90.92
76694;BME280;65625;52.136;5.424;2023-02-24T13:09:39;100684.72;;;8.78;90.72
76694;BME280;65625;52.136;5.424;2023-02-24T13:12:18;100670.72;;;8.73;90.76
76694;BME280;65625;52.136;5.424;2023-02-24T13:14:50;100669.44;;;8.78;89.15
76694;BME280;65625;52.136;5.424;2023-02-24T13:17:26;100658.38;;;8.70;89.30
76694;BME280;65625;52.136;5.424;2023-02-24T13:19:54;100670.75;;;8.60;89.44
76694;BME280;65625;52.136;5.424;2023-02-24T13:27:37;100653.13;;;9.18;86.76
76694;BME280;65625;52.136;5.424;2023-02-24T13:32:40;100641.44;;;9.30;86.70
76694;BME280;65625;52.136;5.424;2023-02-24T13:37:44;100655.00;;;9.41;85.98
76694;BME280;65625;52.136;5.424;2023-02-24T13:45:30;100679.78;;;8.20;87.82
76694;BME280;65625;52.136;5.424;2023-02-24T13:48:35;100680.72;;;7.67;89.70
76694;BME280;65625;52.136;5.424;2023-02-24T14:01:59;100664.34;;;7.03;92.29
76694;BME280;65625;52.136;5.424;2023-02-24T14:04:29;100648.25;;;7.03;92.73
76694;BME280;65625;52.136;5.424;2023-02-24T14:07:01;100643.59;;;7.19;93.66
76694;BME280;65625;52.136;5.424;2023-02-24T14:09:37;100651.16;;;7.41;92.37
76694;BME280;65625;52.136;5.424;2023-02-24T14:14:39;100651.91;;;7.69;92.74
76694;BME280;65625;52.136;5.424;2023-02-24T14:17:18;100651.31;;;7.91;92.61
76694;BME280;65625;52.136;5.424;2023-02-24T14:19:46;100656.66;;;8.05;91.99
76694;BME280;65625;52.136;5.424;2023-02-24T14:22:17;100649.75;;;8.01;91.50
76694;BME280;65625;52.136;5.424;2023-02-24T14:24:44;100652.44;;;8.01;91.31
76694;BME280;65625;52.136;5.424;2023-02-24T14:27:23;100647.47;;;7.95;92.27
76694;BME280;65625;52.136;5.424;2023-02-24T14:29:51;100636.63;;;7.97;92.08
76694;BME280;65625;52.136;5.424;2023-02-24T14:32:23;100653.09;;;8.05;90.61
76694;BME280;65625;52.136;5.424;2023-02-24T14:34:52;100650.59;;;7.89;89.47
76694;BME280;65625;52.136;5.424;2023-02-24T14:37:27;100646.97;;;7.76;89.42
76694;BME280;65625;52.136;5.424;2023-02-24T14:39:57;100642.13;;;7.68;89.72
76694;BME280;65625;52.136;5.424;2023-02-24T14:42:25;100641.91;;;7.59;89.79
76694;BME280;65625;52.136;5.424;2023-02-24T14:44:56;100652.00;;;7.41;88.86
76694;BME280;65625;52.136;5.424;2023-02-24T14:47:26;100648.91;;;7.21;89.34
76694;BME280;65625;52.136;5.424;2023-02-24T14:50:02;100644.06;;;6.99;88.96
76694;BME280;65625;52.136;5.424;2023-02-24T14:52:38;100641.19;;;6.74;89.35
76694;BME280;65625;52.136;5.424;2023-02-24T14:55:13;100649.22;;;6.60;89.41
76694;BME280;65625;52.136;5.424;2023-02-24T15:01:02;100647.88;;;6.39;90.12
76694;BME280;65625;52.136;5.424;2023-02-24T15:03:36;100648.16;;;6.34;90.14
76694;BME280;65625;52.136;5.424;2023-02-24T15:06:05;100647.50;;;6.45;90.31
76694;BME280;65625;52.136;5.424;2023-02-24T15:08:45;100648.56;;;6.57;89.68
76694;BME280;65625;52.136;5.424;2023-02-24T15:13:43;100631.31;;;6.75;89.20
76694;BME280;65625;52.136;5.424;2023-02-24T15:16:20;100648.28;;;6.75;88.96
76694;BME280;65625;52.136;5.424;2023-02-24T15:18:55;100647.31;;;6.90;89.28
76694;BME280;65625;52.136;5.424;2023-02-24T15:21:37;100654.38;;;7.05;89.09